sensor_id;sensor_type;location;lat;lon;timestamp;pressure;altitude;pressure_sealevel;temperature;humidity
79131;BME280;68530;45.194;9.142;2023-04-03T00:01:09;100438.38;;;11.96;57.25
79131;BME280;68530;45.194;9.142;2023-04-03T00:03:34;100425.09;;;11.76;57.48
79131;BME280;68530;45.194;9.142;2023-04-03T00:06:00;100435.34;;;11.84;57.31
79131;BME280;68530;45.194;9.142;2023-04-03T00:08:25;100424.66;;;11.87;57.40
79131;BME280;68530;45.194;9.142;2023-04-03T00:10:51;100427.56;;;11.81;57.67
79131;BME280;68530;45.194;9.142;2023-04-03T00:13:17;100410.06;;;11.78;57.71
79131;BME280;68530;45.194;9.142;2023-04-03T00:15:43;100415.78;;;11.68;58.16
79131;BME280;68530;45.194;9.142;2023-04-03T00:18:08;100411.75;;;11.59;58.46
79131;BME280;68530;45.194;9.142;2023-04-03T00:20:34;100404.69;;;11.39;59.05
79131;BME280;68530;45.194;9.142;2023-04-03T00:23:00;100421.06;;;11.47;58.90
79131;BME280;68530;45.194;9.142;2023-04-03T00:25:26;100426.47;;;11.44;59.06
79131;BME280;68530;45.194;9.142;2023-04-03T00:27:51;100420.63;;;11.35;59.32
79131;BME280;68530;45.194;9.142;2023-04-03T00:30:19;100426.25;;;11.28;59.81
79131;BME280;68530;45.194;9.142;2023-04-03T00:32:44;100427.22;;;11.25;59.48
79131;BME280;68530;45.194;9.142;2023-04-03T00:35:10;100428.22;;;11.22;59.75
79131;BME280;68530;45.194;9.142;2023-04-03T00:37:36;100428.28;;;11.21;60.21
79131;BME280;68530;45.194;9.142;2023-04-03T00:40:02;100413.59;;;11.36;59.43
79131;BME280;68530;45.194;9.142;2023-04-03T00:42:29;100416.28;;;11.34;59.28
79131;BME280;68530;45.194;9.142;2023-04-03T00:47:24;100423.63;;;11.05;60.31
79131;BME280;68530;45.194;9.142;2023-04-03T00:49:50;100413.75;;;11.11;60.36
79131;BME280;68530;45.194;9.142;2023-04-03T00:52:19;100418.03;;;11.13;60.28
79131;BME280;68530;45.194;9.142;2023-04-03T00:54:47;100422.56;;;11.09;60.50
79131;BME280;68530;45.194;9.142;2023-04-03T00:57:14;100418.28;;;11.07;60.23
79131;BME280;68530;45.194;9.142;2023-04-03T00:59:46;100415.81;;;11.02;60.60
79131;BME280;68530;45.194;9.142;2023-04-03T01:02:13;100412.50;;;10.97;60.42
79131;BME280;68530;45.194;9.142;2023-04-03T01:04:41;100414.16;;;11.00;61.01
79131;BME280;68530;45.194;9.142;2023-04-03T01:07:10;100408.72;;;11.04;60.69
79131;BME280;68530;45.194;9.142;2023-04-03T01:09:37;100410.97;;;10.91;61.56
79131;BME280;68530;45.194;9.142;2023-04-03T01:12:13;100403.59;;;10.77;62.16
79131;BME280;68530;45.194;9.142;2023-04-03T01:14:41;100407.22;;;10.75;62.52
79131;BME280;68530;45.194;9.142;2023-04-03T01:17:35;100411.94;;;10.66;63.20
79131;BME280;68530;45.194;9.142;2023-04-03T01:25:36;100402.25;;;10.43;64.35
79131;BME280;68530;45.194;9.142;2023-04-03T01:28:03;100406.56;;;10.46;64.20
79131;BME280;68530;45.194;9.142;2023-04-03T01:30:35;100400.59;;;10.41;64.49
79131;BME280;68530;45.194;9.142;2023-04-03T01:33:04;100408.66;;;10.60;63.94
79131;BME280;68530;45.194;9.142;2023-04-03T01:35:30;100398.25;;;10.57;63.61
79131;BME280;68530;45.194;9.142;2023-04-03T01:37:55;100406.56;;;10.46;64.23
79131;BME280;68530;45.194;9.142;2023-04-03T01:40:21;100415.75;;;10.34;64.86
79131;BME280;68530;45.194;9.142;2023-04-03T01:42:46;100402.56;;;10.34;64.73
79131;BME280;68530;45.194;9.142;2023-04-03T01:45:12;100407.53;;;10.43;64.74
79131;BME280;68530;45.194;9.142;2023-04-03T01:47:37;100409.75;;;10.54;63.92
79131;BME280;68530;45.194;9.142;2023-04-03T01:50:03;100397.78;;;10.45;64.30
79131;BME280;68530;45.194;9.142;2023-04-03T01:52:28;100395.53;;;10.34;64.81
79131;BME280;68530;45.194;9.142;2023-04-03T01:54:54;100397.69;;;10.23;65.11
79131;BME280;68530;45.194;9.142;2023-04-03T01:57:19;100404.19;;;10.38;64.77
79131;BME280;68530;45.194;9.142;2023-04-03T01:59:44;100404.19;;;10.38;64.80
79131;BME280;68530;45.194;9.142;2023-04-03T02:02:10;100396.91;;;10.21;65.06
79131;BME280;68530;45.194;9.142;2023-04-03T02:04:37;100390.03;;;10.41;64.59
79131;BME280;68530;45.194;9.142;2023-04-03T02:07:03;100386.47;;;10.18;65.18
79131;BME280;68530;45.194;9.142;2023-04-03T02:09:28;100399.94;;;10.34;64.81
79131;BME280;68530;45.194;9.142;2023-04-03T02:11:53;100388.94;;;10.22;64.94
79131;BME280;68530;45.194;9.142;2023-04-03T02:14:19;100395.03;;;10.24;64.97
79131;BME280;68530;45.194;9.142;2023-04-03T02:16:45;100392.72;;;10.15;65.28
79131;BME280;68530;45.194;9.142;2023-04-03T02:19:10;100390.25;;;10.34;64.87
79131;BME280;68530;45.194;9.142;2023-04-03T02:21:36;100380.63;;;10.33;64.68
79131;BME280;68530;45.194;9.142;2023-04-03T02:24:01;100383.81;;;10.43;64.16
79131;BME280;68530;45.194;9.142;2023-04-03T02:26:26;100382.66;;;10.50;63.79
79131;BME280;68530;45.194;9.142;2023-04-03T02:28:52;100393.66;;;10.38;64.34
79131;BME280;68530;45.194;9.142;2023-04-03T02:31:18;100395.91;;;10.49;64.13
79131;BME280;68530;45.194;9.142;2023-04-03T02:33:43;100387.25;;;10.45;64.21
79131;BME280;68530;45.194;9.142;2023-04-03T02:36:09;100380.72;;;10.56;63.99
79131;BME280;68530;45.194;9.142;2023-04-03T02:38:35;100384.06;;;10.35;64.63
79131;BME280;68530;45.194;9.142;2023-04-03T02:41:05;100383.44;;;10.29;65.17
79131;BME280;68530;45.194;9.142;2023-04-03T02:43:32;100375.94;;;10.18;65.00
79131;BME280;68530;45.194;9.142;2023-04-03T02:45:57;100375.19;;;10.38;64.15
79131;BME280;68530;45.194;9.142;2023-04-03T02:48:23;100378.78;;;10.35;63.81
79131;BME280;68530;45.194;9.142;2023-04-03T02:50:48;100378.69;;;10.38;63.84
79131;BME280;68530;45.194;9.142;2023-04-03T02:53:14;100371.19;;;10.28;63.74
79131;BME280;68530;45.194;9.142;2023-04-03T02:55:40;100369.50;;;10.25;63.69
79131;BME280;68530;45.194;9.142;2023-04-03T02:58:06;100363.81;;;10.36;62.93
79131;BME280;68530;45.194;9.142;2023-04-03T03:00:31;100364.63;;;10.14;63.22
79131;BME280;68530;45.194;9.142;2023-04-03T03:02:57;100369.06;;;10.14;63.57
79131;BME280;68530;45.194;9.142;2023-04-03T03:05:22;100368.44;;;10.07;63.75
79131;BME280;68530;45.194;9.142;2023-04-03T03:07:48;100369.13;;;10.12;63.59
79131;BME280;68530;45.194;9.142;2023-04-03T03:10:13;100370.28;;;10.05;63.68
79131;BME280;68530;45.194;9.142;2023-04-03T03:12:39;100362.53;;;10.00;63.46
79131;BME280;68530;45.194;9.142;2023-04-03T03:15:06;100369.78;;;10.17;63.18
79131;BME280;68530;45.194;9.142;2023-04-03T03:17:31;100370.28;;;10.05;63.20
79131;BME280;68530;45.194;9.142;2023-04-03T03:19:57;100361.69;;;9.74;64.12
79131;BME280;68530;45.194;9.142;2023-04-03T03:22:22;100367.81;;;9.75;64.36
79131;BME280;68530;45.194;9.142;2023-04-03T03:24:47;100369.47;;;9.77;64.84
79131;BME280;68530;45.194;9.142;2023-04-03T03:27:13;100354.41;;;9.81;64.05
79131;BME280;68530;45.194;9.142;2023-04-03T03:29:38;100363.31;;;9.78;64.55
79131;BME280;68530;45.194;9.142;2023-04-03T03:32:04;100374.00;;;9.74;64.47
79131;BME280;68530;45.194;9.142;2023-04-03T03:34:29;100367.94;;;9.72;64.31
79131;BME280;68530;45.194;9.142;2023-04-03T03:36:55;100371.47;;;9.71;64.79
79131;BME280;68530;45.194;9.142;2023-04-03T03:39:20;100363.88;;;9.61;64.80
79131;BME280;68530;45.194;9.142;2023-04-03T03:41:46;100361.41;;;9.57;65.36
79131;BME280;68530;45.194;9.142;2023-04-03T03:44:11;100353.84;;;9.47;65.66
79131;BME280;68530;45.194;9.142;2023-04-03T03:46:36;100355.13;;;9.61;65.36
79131;BME280;68530;45.194;9.142;2023-04-03T03:49:02;100357.13;;;9.54;65.30
79131;BME280;68530;45.194;9.142;2023-04-03T03:51:27;100354.59;;;9.51;65.83
79131;BME280;68530;45.194;9.142;2023-04-03T03:53:52;100353.50;;;9.57;65.20
79131;BME280;68530;45.194;9.142;2023-04-03T03:56:18;100357.69;;;9.37;65.89
79131;BME280;68530;45.194;9.142;2023-04-03T03:58:43;100361.34;;;9.33;66.23
79131;BME280;68530;45.194;9.142;2023-04-03T04:01:08;100367.69;;;9.27;66.40
79131;BME280;68530;45.194;9.142;2023-04-03T04:03:34;100367.16;;;9.43;66.20
79131;BME280;68530;45.194;9.142;2023-04-03T04:05:59;100371.41;;;9.20;66.83
79131;BME280;68530;45.194;9.142;2023-04-03T04:08:25;100376.88;;;9.14;67.28
79131;BME280;68530;45.194;9.142;2023-04-03T04:10:50;100380.13;;;9.22;67.13
79131;BME280;68530;45.194;9.142;2023-04-03T04:13:16;100383.97;;;9.38;66.58
79131;BME280;68530;45.194;9.142;2023-04-03T04:15:42;100374.94;;;9.19;67.26
79131;BME280;68530;45.194;9.142;2023-04-03T04:18:08;100376.66;;;9.20;67.20
79131;BME280;68530;45.194;9.142;2023-04-03T04:20:33;100381.19;;;9.16;67.26
79131;BME280;68530;45.194;9.142;2023-04-03T04:22:58;100374.78;;;9.25;67.17
79131;BME280;68530;45.194;9.142;2023-04-03T04:25:24;100372.44;;;9.16;67.01
79131;BME280;68530;45.194;9.142;2023-04-03T04:27:49;100371.50;;;9.17;67.31
79131;BME280;68530;45.194;9.142;2023-04-03T04:30:15;100371.94;;;9.04;67.74
79131;BME280;68530;45.194;9.142;2023-04-03T04:32:41;100361.22;;;9.10;67.75
79131;BME280;68530;45.194;9.142;2023-04-03T04:35:06;100368.75;;;9.21;67.41
79131;BME280;68530;45.194;9.142;2023-04-03T04:37:32;100368.88;;;9.17;67.36
79131;BME280;68530;45.194;9.142;2023-04-03T04:39:57;100362.16;;;9.08;67.06
79131;BME280;68530;45.194;9.142;2023-04-03T04:42:23;100376.59;;;9.23;67.10
79131;BME280;68530;45.194;9.142;2023-04-03T04:44:48;100375.41;;;9.05;67.72
79131;BME280;68530;45.194;9.142;2023-04-03T04:47:13;100370.19;;;9.03;67.74
79131;BME280;68530;45.194;9.142;2023-04-03T04:49:39;100369.44;;;9.00;68.13
79131;BME280;68530;45.194;9.142;2023-04-03T04:52:05;100366.84;;;8.98;68.21
79131;BME280;68530;45.194;9.142;2023-04-03T04:54:30;100368.66;;;8.98;68.14
79131;BME280;68530;45.194;9.142;2023-04-03T04:56:56;100367.91;;;8.92;68.86
79131;BME280;68530;45.194;9.142;2023-04-03T04:59:21;100377.28;;;9.01;68.11
79131;BME280;68530;45.194;9.142;2023-04-03T05:01:46;100372.13;;;8.98;67.56
79131;BME280;68530;45.194;9.142;2023-04-03T05:04:12;100381.72;;;8.99;68.24
79131;BME280;68530;45.194;9.142;2023-04-03T05:06:40;100382.91;;;8.60;69.34
79131;BME280;68530;45.194;9.142;2023-04-03T05:09:06;100376.91;;;8.85;68.34
79131;BME280;68530;45.194;9.142;2023-04-03T05:11:32;100376.94;;;8.84;69.08
79131;BME280;68530;45.194;9.142;2023-04-03T05:13:57;100381.13;;;8.91;68.03
79131;BME280;68530;45.194;9.142;2023-04-03T05:16:22;100372.50;;;9.14;66.92
79131;BME280;68530;45.194;9.142;2023-04-03T05:18:48;100383.56;;;9.24;66.69
79131;BME280;68530;45.194;9.142;2023-04-03T05:21:13;100380.31;;;9.16;66.63
79131;BME280;68530;45.194;9.142;2023-04-03T05:23:38;100381.44;;;9.08;66.00
79131;BME280;68530;45.194;9.142;2023-04-03T05:26:04;100381.44;;;9.08;66.24
79131;BME280;68530;45.194;9.142;2023-04-03T05:28:29;100389.13;;;9.15;65.52
79131;BME280;68530;45.194;9.142;2023-04-03T05:30:56;100387.50;;;9.10;65.77
79131;BME280;68530;45.194;9.142;2023-04-03T05:33:22;100378.34;;;8.95;66.50
79131;BME280;68530;45.194;9.142;2023-04-03T05:35:48;100393.00;;;9.04;65.94
79131;BME280;68530;45.194;9.142;2023-04-03T05:38:13;100399.19;;;9.02;65.95
79131;BME280;68530;45.194;9.142;2023-04-03T05:40:39;100397.34;;;9.05;65.46
79131;BME280;68530;45.194;9.142;2023-04-03T05:43:04;100400.78;;;9.07;65.56
79131;BME280;68530;45.194;9.142;2023-04-03T05:45:30;100376.69;;;8.93;65.63
79131;BME280;68530;45.194;9.142;2023-04-03T05:47:55;100405.22;;;9.05;65.95
79131;BME280;68530;45.194;9.142;2023-04-03T05:50:21;100398.41;;;8.98;65.32
79131;BME280;68530;45.194;9.142;2023-04-03T05:52:48;100401.75;;;9.03;65.33
79131;BME280;68530;45.194;9.142;2023-04-03T05:55:14;100407.69;;;9.10;65.62
79131;BME280;68530;45.194;9.142;2023-04-03T05:57:39;100408.16;;;9.23;64.92
79131;BME280;68530;45.194;9.142;2023-04-03T06:00:06;100399.91;;;9.34;64.37
79131;BME280;68530;45.194;9.142;2023-04-03T06:02:32;100404.84;;;9.43;63.09
79131;BME280;68530;45.194;9.142;2023-04-03T06:04:57;100409.78;;;9.27;64.16
79131;BME280;68530;45.194;9.142;2023-04-03T06:07:24;100422.97;;;9.26;64.46
79131;BME280;68530;45.194;9.142;2023-04-03T06:09:54;100418.78;;;9.20;64.43
79131;BME280;68530;45.194;9.142;2023-04-03T06:12:21;100417.88;;;9.21;64.04
79131;BME280;68530;45.194;9.142;2023-04-03T06:14:46;100416.88;;;9.25;64.01
79131;BME280;68530;45.194;9.142;2023-04-03T06:17:12;100408.16;;;9.23;64.29
79131;BME280;68530;45.194;9.142;2023-04-03T06:19:38;100408.59;;;9.37;64.04
79131;BME280;68530;45.194;9.142;2023-04-03T06:22:04;100422.59;;;9.90;62.69
79131;BME280;68530;45.194;9.142;2023-04-03T06:24:30;100424.94;;;9.98;61.13
79131;BME280;68530;45.194;9.142;2023-04-03T06:26:56;100417.16;;;9.95;61.70
79131;BME280;68530;45.194;9.142;2023-04-03T06:29:22;100416.41;;;9.91;61.62
79131;BME280;68530;45.194;9.142;2023-04-03T06:31:48;100428.31;;;10.02;61.67
79131;BME280;68530;45.194;9.142;2023-04-03T06:34:14;100420.78;;;10.16;61.08
79131;BME280;68530;45.194;9.142;2023-04-03T06:36:40;100426.19;;;10.37;59.80
79131;BME280;68530;45.194;9.142;2023-04-03T06:39:06;100431.13;;;10.22;60.46
79131;BME280;68530;45.194;9.142;2023-04-03T06:41:35;100410.91;;;9.98;60.97
79131;BME280;68530;45.194;9.142;2023-04-03T06:44:00;100432.78;;;10.00;60.97
79131;BME280;68530;45.194;9.142;2023-04-03T06:46:26;100447.47;;;10.07;60.92
79131;BME280;68530;45.194;9.142;2023-04-03T06:48:52;100431.59;;;10.08;60.86
79131;BME280;68530;45.194;9.142;2023-04-03T06:51:28;100440.28;;;10.10;59.88
79131;BME280;68530;45.194;9.142;2023-04-03T06:53:56;100439.06;;;10.21;60.32
79131;BME280;68530;45.194;9.142;2023-04-03T06:56:22;100442.72;;;10.42;59.57
79131;BME280;68530;45.194;9.142;2023-04-03T06:58:48;100435.75;;;10.41;58.03
79131;BME280;68530;45.194;9.142;2023-04-03T07:01:15;100449.28;;;10.56;58.08
79131;BME280;68530;45.194;9.142;2023-04-03T07:03:41;100443.88;;;10.59;58.15
79131;BME280;68530;45.194;9.142;2023-04-03T07:06:11;100445.25;;;10.91;57.87
79131;BME280;68530;45.194;9.142;2023-04-03T07:08:36;100435.72;;;10.89;57.36
79131;BME280;68530;45.194;9.142;2023-04-03T07:11:02;100429.13;;;10.99;57.61
79131;BME280;68530;45.194;9.142;2023-04-03T07:13:28;100438.59;;;11.27;57.01
79131;BME280;68530;45.194;9.142;2023-04-03T07:15:54;100431.28;;;11.34;56.63
79131;BME280;68530;45.194;9.142;2023-04-03T07:18:19;100432.03;;;11.15;56.31
79131;BME280;68530;45.194;9.142;2023-04-03T07:20:46;100442.09;;;11.28;56.24
79131;BME280;68530;45.194;9.142;2023-04-03T07:23:12;100433.97;;;11.32;56.30
79131;BME280;68530;45.194;9.142;2023-04-03T07:25:42;100433.03;;;11.33;56.32
79131;BME280;68530;45.194;9.142;2023-04-03T07:28:07;100433.81;;;11.58;56.60
79131;BME280;68530;45.194;9.142;2023-04-03T07:30:34;100432.97;;;11.57;56.28
79131;BME280;68530;45.194;9.142;2023-04-03T07:33:00;100437.84;;;11.66;55.58
79131;BME280;68530;45.194;9.142;2023-04-03T07:35:26;100439.31;;;11.74;56.29
79131;BME280;68530;45.194;9.142;2023-04-03T07:37:52;100439.03;;;11.80;55.50
79131;BME280;68530;45.194;9.142;2023-04-03T07:40:18;100441.34;;;11.88;55.99
79131;BME280;68530;45.194;9.142;2023-04-03T07:42:44;100435.69;;;12.18;54.67
79131;BME280;68530;45.194;9.142;2023-04-03T07:45:10;100438.91;;;12.25;54.47
79131;BME280;68530;45.194;9.142;2023-04-03T07:47:35;100440.50;;;12.29;54.05
79131;BME280;68530;45.194;9.142;2023-04-03T07:50:01;100436.88;;;12.31;53.39
79131;BME280;68530;45.194;9.142;2023-04-03T07:52:26;100436.88;;;12.31;53.19
79131;BME280;68530;45.194;9.142;2023-04-03T07:54:52;100444.34;;;12.41;53.18
79131;BME280;68530;45.194;9.142;2023-04-03T07:57:17;100434.44;;;12.46;52.78
79131;BME280;68530;45.194;9.142;2023-04-03T07:59:42;100424.78;;;12.26;52.69
79131;BME280;68530;45.194;9.142;2023-04-03T08:02:09;100438.97;;;12.44;52.45
79131;BME280;68530;45.194;9.142;2023-04-03T08:04:35;100445.63;;;12.32;52.15
79131;BME280;68530;45.194;9.142;2023-04-03T08:07:01;100436.66;;;12.36;51.75
79131;BME280;68530;45.194;9.142;2023-04-03T08:09:26;100440.97;;;12.58;51.83
79131;BME280;68530;45.194;9.142;2023-04-03T08:11:54;100434.69;;;12.60;52.02
79131;BME280;68530;45.194;9.142;2023-04-03T08:14:20;100442.13;;;12.71;51.39
79131;BME280;68530;45.194;9.142;2023-04-03T08:16:47;100447.97;;;12.78;51.67
79131;BME280;68530;45.194;9.142;2023-04-03T08:19:14;100447.31;;;12.92;51.17
79131;BME280;68530;45.194;9.142;2023-04-03T08:21:40;100451.69;;;12.93;51.29
79131;BME280;68530;45.194;9.142;2023-04-03T08:24:09;100449.97;;;12.92;51.07
79131;BME280;68530;45.194;9.142;2023-04-03T08:26:35;100447.94;;;12.97;51.06
79131;BME280;68530;45.194;9.142;2023-04-03T08:29:01;100445.31;;;12.97;50.60
79131;BME280;68530;45.194;9.142;2023-04-03T08:31:27;100433.78;;;12.98;50.77
79131;BME280;68530;45.194;9.142;2023-04-03T08:33:53;100443.94;;;13.07;50.65
79131;BME280;68530;45.194;9.142;2023-04-03T08:36:27;100442.13;;;13.08;49.70
79131;BME280;68530;45.194;9.142;2023-04-03T08:38:54;100436.63;;;13.13;50.16
79131;BME280;68530;45.194;9.142;2023-04-03T08:41:27;100432.25;;;13.12;49.84
79131;BME280;68530;45.194;9.142;2023-04-03T08:46:25;100437.41;;;13.15;50.30
79131;BME280;68530;45.194;9.142;2023-04-03T08:48:57;100434.16;;;13.27;50.54
79131;BME280;68530;45.194;9.142;2023-04-03T08:51:24;100432.22;;;13.31;50.11
79131;BME280;68530;45.194;9.142;2023-04-03T08:56:52;100424.22;;;13.50;50.31
79131;BME280;68530;45.194;9.142;2023-04-03T08:59:25;100431.13;;;13.54;50.23
79131;BME280;68530;45.194;9.142;2023-04-03T09:01:52;100427.44;;;13.57;50.66
79131;BME280;68530;45.194;9.142;2023-04-03T09:04:18;100429.69;;;13.64;50.74
79131;BME280;68530;45.194;9.142;2023-04-03T09:06:47;100420.59;;;13.70;50.71
79131;BME280;68530;45.194;9.142;2023-04-03T09:09:15;100417.09;;;13.70;50.20
79131;BME280;68530;45.194;9.142;2023-04-03T09:17:00;100421.19;;;13.75;49.86
79131;BME280;68530;45.194;9.142;2023-04-03T09:21:57;100403.19;;;13.82;49.87
79131;BME280;68530;45.194;9.142;2023-04-03T09:24:24;100409.03;;;13.89;50.59
79131;BME280;68530;45.194;9.142;2023-04-03T09:26:56;100402.41;;;13.80;49.93
79131;BME280;68530;45.194;9.142;2023-04-03T09:29:25;100405.06;;;13.80;50.05
79131;BME280;68530;45.194;9.142;2023-04-03T09:34:42;100407.00;;;13.94;50.24
79131;BME280;68530;45.194;9.142;2023-04-03T09:37:08;100412.44;;;13.91;50.41
79131;BME280;68530;45.194;9.142;2023-04-03T09:40:04;100404.09;;;13.99;50.90
79131;BME280;68530;45.194;9.142;2023-04-03T09:42:30;100407.13;;;14.09;50.81
79131;BME280;68530;45.194;9.142;2023-04-03T09:44:59;100406.09;;;14.11;51.18
79131;BME280;68530;45.194;9.142;2023-04-03T09:49:50;100393.41;;;14.34;51.06
79131;BME280;68530;45.194;9.142;2023-04-03T09:52:22;100394.19;;;14.36;50.69
79131;BME280;68530;45.194;9.142;2023-04-03T09:54:49;100392.78;;;14.29;51.09
79131;BME280;68530;45.194;9.142;2023-04-03T09:57:14;100384.25;;;14.40;51.63
79131;BME280;68530;45.194;9.142;2023-04-03T09:59:45;100386.34;;;14.67;51.01
79131;BME280;68530;45.194;9.142;2023-04-03T10:04:40;100380.09;;;14.52;51.34
79131;BME280;68530;45.194;9.142;2023-04-03T10:07:31;100384.59;;;14.49;51.02
79131;BME280;68530;45.194;9.142;2023-04-03T10:09:59;100369.38;;;14.53;50.70
79131;BME280;68530;45.194;9.142;2023-04-03T10:12:26;100370.66;;;14.62;50.81
79131;BME280;68530;45.194;9.142;2023-04-03T10:14:57;100368.19;;;14.59;50.99
79131;BME280;68530;45.194;9.142;2023-04-03T10:17:53;100367.25;;;14.60;51.49
79131;BME280;68530;45.194;9.142;2023-04-03T10:20:39;100365.34;;;14.62;51.32
79131;BME280;68530;45.194;9.142;2023-04-03T10:23:18;100360.56;;;14.69;51.13
79131;BME280;68530;45.194;9.142;2023-04-03T10:31:10;100353.13;;;14.75;50.99
79131;BME280;68530;45.194;9.142;2023-04-03T10:44:48;100332.66;;;14.94;50.73
79131;BME280;68530;45.194;9.142;2023-04-03T10:47:21;100331.28;;;15.02;50.62
79131;BME280;68530;45.194;9.142;2023-04-03T10:52:25;100321.22;;;15.08;50.56
79131;BME280;68530;45.194;9.142;2023-04-03T10:57:22;100313.84;;;15.13;49.44
79131;BME280;68530;45.194;9.142;2023-04-03T11:00:02;100307.19;;;15.05;49.85
79131;BME280;68530;45.194;9.142;2023-04-03T11:02:42;100299.75;;;15.27;49.08
79131;BME280;68530;45.194;9.142;2023-04-03T11:07:52;100290.34;;;15.21;49.29
79131;BME280;68530;45.194;9.142;2023-04-03T11:10:25;100284.69;;;15.42;49.53
79131;BME280;68530;45.194;9.142;2023-04-03T11:13:14;100283.19;;;15.52;48.66
79131;BME280;68530;45.194;9.142;2023-04-03T11:15:43;100267.81;;;15.57;49.41
79131;BME280;68530;45.194;9.142;2023-04-03T11:18:20;100273.69;;;15.62;48.91
79131;BME280;68530;45.194;9.142;2023-04-03T11:20:57;100275.38;;;15.63;48.88
79131;BME280;68530;45.194;9.142;2023-04-03T11:23:29;100265.16;;;15.72;48.77
79131;BME280;68530;45.194;9.142;2023-04-03T11:26:07;100271.97;;;15.61;49.24
79131;BME280;68530;45.194;9.142;2023-04-03T11:28:33;100266.56;;;15.77;48.26
79131;BME280;68530;45.194;9.142;2023-04-03T11:39:20;100250.34;;;15.53;49.06
79131;BME280;68530;45.194;9.142;2023-04-03T11:41:48;100251.94;;;15.70;48.51
79131;BME280;68530;45.194;9.142;2023-04-03T11:44:39;100247.97;;;15.77;48.03
79131;BME280;68530;45.194;9.142;2023-04-03T11:47:10;100244.25;;;15.66;47.63
79131;BME280;68530;45.194;9.142;2023-04-03T12:16:19;100210.56;;;15.95;45.70
79131;BME280;68530;45.194;9.142;2023-04-03T12:18:55;100216.72;;;15.96;44.98
79131;BME280;68530;45.194;9.142;2023-04-03T12:21:23;100205.69;;;15.87;45.56
79131;BME280;68530;45.194;9.142;2023-04-03T12:40:36;100178.50;;;16.11;44.73
79131;BME280;68530;45.194;9.142;2023-04-03T12:43:41;100179.66;;;16.07;45.33
79131;BME280;68530;45.194;9.142;2023-04-03T12:51:19;100168.22;;;16.19;43.85
79131;BME280;68530;45.194;9.142;2023-04-03T12:53:46;100174.66;;;16.15;43.38
79131;BME280;68530;45.194;9.142;2023-04-03T12:56:26;100166.34;;;16.07;43.62
79131;BME280;68530;45.194;9.142;2023-04-03T12:59:22;100159.31;;;16.06;44.46
79131;BME280;68530;45.194;9.142;2023-04-03T13:01:58;100164.91;;;16.16;43.43
79131;BME280;68530;45.194;9.142;2023-04-03T13:04:26;100142.00;;;16.13;43.85
79131;BME280;68530;45.194;9.142;2023-04-03T13:06:52;100153.25;;;16.04;44.44
79131;BME280;68530;45.194;9.142;2023-04-03T13:11:49;100142.91;;;16.27;44.33
79131;BME280;68530;45.194;9.142;2023-04-03T13:14:18;100142.75;;;16.43;43.77
79131;BME280;68530;45.194;9.142;2023-04-03T13:17:03;100133.56;;;16.34;44.43
79131;BME280;68530;45.194;9.142;2023-04-03T13:19:30;100138.47;;;16.40;43.57
79131;BME280;68530;45.194;9.142;2023-04-03T13:22:06;100138.69;;;16.37;42.97
79131;BME280;68530;45.194;9.142;2023-04-03T13:24:36;100131.31;;;16.28;43.74
79131;BME280;68530;45.194;9.142;2023-04-03T13:27:03;100140.53;;;16.22;43.78
79131;BME280;68530;45.194;9.142;2023-04-03T13:29:33;100128.34;;;16.32;43.45
79131;BME280;68530;45.194;9.142;2023-04-03T13:32:00;100134.84;;;16.41;43.10
79131;BME280;68530;45.194;9.142;2023-04-03T13:34:29;100130.13;;;16.32;43.54
79131;BME280;68530;45.194;9.142;2023-04-03T13:37:00;100126.84;;;16.28;43.45
79131;BME280;68530;45.194;9.142;2023-04-03T13:39:34;100121.84;;;16.37;43.20
79131;BME280;68530;45.194;9.142;2023-04-03T13:42:21;100122.28;;;16.30;43.86
79131;BME280;68530;45.194;9.142;2023-04-03T13:44:48;100119.50;;;16.32;43.51
79131;BME280;68530;45.194;9.142;2023-04-03T13:47:22;100118.13;;;16.39;43.04
79131;BME280;68530;45.194;9.142;2023-04-03T13:52:48;100108.75;;;16.33;44.01
79131;BME280;68530;45.194;9.142;2023-04-03T14:00:48;100104.91;;;16.38;42.36
79131;BME280;68530;45.194;9.142;2023-04-03T14:03:30;100092.25;;;16.28;42.85
79131;BME280;68530;45.194;9.142;2023-04-03T14:05:56;100094.41;;;16.36;43.20
79131;BME280;68530;45.194;9.142;2023-04-03T14:08:22;100100.69;;;16.35;43.42
79131;BME280;68530;45.194;9.142;2023-04-03T14:10:48;100086.72;;;16.44;42.99
79131;BME280;68530;45.194;9.142;2023-04-03T14:13:16;100085.25;;;16.40;43.58
79131;BME280;68530;45.194;9.142;2023-04-03T14:15:42;100094.94;;;16.41;43.58
79131;BME280;68530;45.194;9.142;2023-04-03T14:18:13;100091.44;;;16.54;41.99
79131;BME280;68530;45.194;9.142;2023-04-03T14:20:40;100093.88;;;16.44;42.40
79131;BME280;68530;45.194;9.142;2023-04-03T14:23:05;100077.03;;;16.43;42.70
79131;BME280;68530;45.194;9.142;2023-04-03T14:25:31;100084.19;;;16.43;43.17
79131;BME280;68530;45.194;9.142;2023-04-03T14:27:58;100078.44;;;16.49;42.81
79131;BME280;68530;45.194;9.142;2023-04-03T14:30:30;100088.44;;;16.45;43.08
79131;BME280;68530;45.194;9.142;2023-04-03T14:32:57;100079.41;;;16.61;43.03
79131;BME280;68530;45.194;9.142;2023-04-03T14:35:24;100067.19;;;16.58;43.46
79131;BME280;68530;45.194;9.142;2023-04-03T14:37:51;100078.13;;;16.54;43.54
79131;BME280;68530;45.194;9.142;2023-04-03T14:40:23;100070.78;;;16.57;43.67
79131;BME280;68530;45.194;9.142;2023-04-03T14:42:49;100066.09;;;16.48;44.20
79131;BME280;68530;45.194;9.142;2023-04-03T14:45:15;100069.50;;;16.50;43.42
79131;BME280;68530;45.194;9.142;2023-04-03T14:47:53;100063.53;;;16.46;43.04
79131;BME280;68530;45.194;9.142;2023-04-03T14:50:24;100058.09;;;16.48;42.90
79131;BME280;68530;45.194;9.142;2023-04-03T14:52:53;100066.53;;;16.42;42.40
79131;BME280;68530;45.194;9.142;2023-04-03T14:55:21;100058.41;;;16.43;42.45
79131;BME280;68530;45.194;9.142;2023-04-03T14:57:47;100060.13;;;16.31;42.27